Time;durP1;ratioP1;P1;durP2;ratioP2;P2;SDS_P1;SDS_P2;PMS_P1;PMS_P2;Temp;Humidity;BMP_temperature;BMP_pressure;BME280_temperature;BME280_humidity;BME280_pressure;Samples;Min_cycle;Max_cycle;Signal;HPM_P1;HPM_P2
2022/09/22 00:01:18;;;;;;;5.20;2.10;;;5.30;99.90;;;;;;4992706;28;20367;-74
2022/09/22 00:03:49;;;;;;;5.75;2.00;;;5.40;99.90;;;;;;4995285;28;20398;-73
2022/09/22 00:06:31;;;;;;;3.63;1.55;;;5.40;99.90;;;;;;4994193;28;20045;-73
2022/09/22 00:08:59;;;;;;;4.05;2.13;;;5.30;99.90;;;;;;4992290;28;20042;-73
2022/09/22 00:11:35;;;;;;;4.05;1.80;;;5.30;99.90;;;;;;4992993;28;20026;-73
2022/09/22 00:14:05;;;;;;;7.53;2.75;;;5.20;99.90;;;;;;4993371;28;20042;-73
2022/09/22 00:16:36;;;;;;;3.67;2.03;;;5.20;99.90;;;;;;4976164;28;20042;-73
2022/09/22 00:19:06;;;;;;;4.30;1.83;;;5.10;99.90;;;;;;4993540;28;20031;-73
2022/09/22 00:21:32;;;;;;;5.30;1.85;;;5.10;99.90;;;;;;4992770;28;20277;-75
2022/09/22 00:24:03;;;;;;;4.15;2.20;;;5.20;99.90;;;;;;5005608;28;20022;-72
2022/09/22 00:26:30;;;;;;;4.20;2.22;;;5.10;99.90;;;;;;4989533;28;20485;-72
2022/09/22 00:28:56;;;;;;;7.78;2.50;;;5.00;99.90;;;;;;4994108;28;20037;-73
2022/09/22 00:31:25;;;;;;;3.17;1.73;;;5.00;99.90;;;;;;4992621;28;20057;-73
2022/09/22 00:33:54;;;;;;;4.85;1.60;;;5.00;99.90;;;;;;4993831;28;20347;-72
2022/09/22 00:36:25;;;;;;;5.60;2.70;;;5.00;99.90;;;;;;4993250;28;20042;-73
2022/09/22 00:38:53;;;;;;;4.60;2.03;;;5.10;99.90;;;;;;4993307;28;20509;-73
2022/09/22 00:41:24;;;;;;;4.97;2.55;;;5.10;99.90;;;;;;4992561;28;20030;-73
2022/09/22 00:44:10;;;;;;;;;;;5.10;99.90;;;;;;4993800;28;20370;-72
2022/09/22 00:46:39;;;;;;;5.10;2.15;;;4.90;99.90;;;;;;4988262;28;20355;-73
2022/09/22 00:49:07;;;;;;;6.00;2.63;;;4.80;99.90;;;;;;4992714;28;20030;-72
2022/09/22 00:51:38;;;;;;;4.25;1.70;;;4.60;99.90;;;;;;4992266;28;20367;-73
2022/09/22 00:54:08;;;;;;;4.05;2.30;;;4.80;99.90;;;;;;4976710;28;20030;-74
2022/09/22 00:56:41;;;;;;;4.38;1.88;;;4.80;99.90;;;;;;4993377;28;20470;-73
2022/09/22 00:59:13;;;;;;;3.67;2.05;;;4.90;99.90;;;;;;4992249;28;20042;-74
2022/09/22 01:01:40;;;;;;;6.25;2.22;;;4.90;99.90;;;;;;4992284;28;20026;-73
2022/09/22 01:04:07;;;;;;;5.10;2.50;;;4.90;99.90;;;;;;4992515;28;20188;-73
2022/09/22 01:06:34;;;;;;;5.47;2.35;;;4.80;99.90;;;;;;4975655;28;20046;-73
2022/09/22 01:09:01;;;;;;;4.75;2.00;;;4.80;99.90;;;;;;4992286;28;20038;-74
2022/09/22 01:11:28;;;;;;;5.05;1.65;;;4.80;99.90;;;;;;4974266;28;20042;-73
2022/09/22 01:13:55;;;;;;;3.80;1.50;;;4.70;99.90;;;;;;4975373;28;20383;-73
2022/09/22 01:17:06;;;;;;;3.78;1.77;;;4.70;99.90;;;;;;4992846;28;20037;-73
2022/09/22 01:19:53;;;;;;;;;;;4.70;99.90;;;;;;4984836;28;20031;-72
2022/09/22 01:22:48;;;;;;;2.78;1.60;;;4.60;99.90;;;;;;4945339;28;19905;-73
2022/09/22 01:25:29;;;;;;;6.82;2.35;;;4.50;99.90;;;;;;4992044;28;20033;-72
2022/09/22 01:28:17;;;;;;;4.60;2.30;;;4.60;99.90;;;;;;4992324;28;20030;-75
2022/09/22 01:30:51;;;;;;;4.95;2.35;;;4.70;99.90;;;;;;4992105;28;20030;-73
2022/09/22 01:33:35;;;;;;;4.88;2.53;;;4.70;99.90;;;;;;4991983;28;20043;-73
2022/09/22 01:36:20;;;;;;;4.50;2.70;;;4.50;99.90;;;;;;4992324;28;20030;-74
2022/09/22 01:39:03;;;;;;;5.10;2.65;;;4.50;99.90;;;;;;4991852;28;20054;-73
2022/09/22 01:41:57;;;;;;;5.00;3.65;;;4.40;99.90;;;;;;4991697;28;20049;-73
2022/09/22 01:44:33;;;;;;;6.15;2.85;;;4.30;99.90;;;;;;4992635;28;20467;-73
2022/09/22 01:47:10;;;;;;;5.47;2.95;;;4.40;99.90;;;;;;4992595;28;20030;-73
2022/09/22 01:49:42;;;;;;;6.72;3.42;;;4.50;99.90;;;;;;4975289;28;20485;-73
2022/09/22 01:52:15;;;;;;;7.60;4.72;;;4.60;99.90;;;;;;4973765;28;20031;-73
2022/09/22 01:55:03;;;;;;;7.57;5.25;;;4.70;99.90;;;;;;4992478;28;20031;-72
2022/09/22 01:57:45;;;;;;;6.78;3.20;;;4.80;99.90;;;;;;4992375;28;20045;-72
2022/09/22 02:00:11;;;;;;;5.20;2.30;;;4.70;99.90;;;;;;4991479;28;20026;-73
2022/09/22 02:03:05;;;;;;;5.82;2.60;;;4.60;99.90;;;;;;4974389;28;20045;-73
2022/09/22 02:05:35;;;;;;;;;;;4.70;99.90;;;;;;4987167;28;20030;-72
2022/09/22 02:08:06;;;;;;;4.47;2.10;;;4.60;99.90;;;;;;4991343;28;20354;-73
2022/09/22 02:10:38;;;;;;;;;;;4.50;99.90;;;;;;4992215;28;20042;-73
2022/09/22 02:13:05;;;;;;;3.13;2.00;;;4.50;99.90;;;;;;4991162;28;19906;-73
2022/09/22 02:18:26;;;;;;;5.88;2.72;;;4.60;99.90;;;;;;4973817;28;20042;-73
2022/09/22 02:20:52;;;;;;;3.08;1.58;;;4.60;99.90;;;;;;4973911;28;20434;-73
2022/09/22 02:23:19;;;;;;;5.80;1.70;;;4.60;99.90;;;;;;4991527;28;20031;-73
2022/09/22 02:25:46;;;;;;;4.03;2.50;;;4.50;99.90;;;;;;4992116;28;20034;-72
2022/09/22 02:32:18;;;;;;;3.63;1.70;;;4.40;99.90;;;;;;4896694;29;20599;-73
2022/09/22 03:03:13;;;;;;;4.78;2.47;;;4.30;99.90;;;;;;5116449;23;20050;-75
2022/09/22 03:05:39;;;;;;;6.63;3.67;;;4.20;99.90;;;;;;4995382;28;20376;-75
2022/09/22 03:08:11;;;;;;;7.55;2.65;;;4.00;99.90;;;;;;4995136;28;20035;-75
2022/09/22 03:10:58;;;;;;;3.60;1.98;;;4.00;99.90;;;;;;4977002;28;20034;-76
2022/09/22 03:13:24;;;;;;;8.52;2.70;;;4.10;99.90;;;;;;4994263;28;20440;-73
2022/09/22 03:15:51;;;;;;;4.28;2.30;;;4.10;99.90;;;;;;4994940;28;20030;-73
2022/09/22 03:18:17;;;;;;;6.80;2.80;;;4.10;99.90;;;;;;4993706;28;20038;-73
2022/09/22 03:20:44;;;;;;;6.03;2.53;;;4.20;99.90;;;;;;4993886;28;20046;-74
2022/09/22 03:26:58;;;;;;;6.65;2.58;;;4.20;99.90;;;;;;4987430;28;20038;-73
2022/09/22 03:29:24;;;;;;;6.07;2.60;;;4.20;99.90;;;;;;4994265;28;20042;-74
2022/09/22 03:31:50;;;;;;;4.97;2.28;;;4.10;99.90;;;;;;4975994;28;20041;-74
2022/09/22 03:34:16;;;;;;;5.38;2.28;;;4.00;99.90;;;;;;4976603;28;20036;-74
2022/09/22 03:36:42;;;;;;;5.70;2.20;;;3.90;99.90;;;;;;4994401;28;20042;-74
2022/09/22 03:39:08;;;;;;;6.97;2.25;;;3.90;99.90;;;;;;4994758;28;20045;-73
2022/09/22 03:41:34;;;;;;;6.60;2.33;;;3.90;99.90;;;;;;4974979;28;20037;-73
2022/09/22 03:44:01;;;;;;;4.50;2.38;;;3.90;99.90;;;;;;4976957;28;20042;-73
2022/09/22 03:46:27;;;;;;;5.82;2.55;;;4.00;99.90;;;;;;4988007;28;20497;-73
2022/09/22 03:48:53;;;;;;;2.92;2.13;;;3.90;99.90;;;;;;4994699;28;20034;-73
2022/09/22 03:51:19;;;;;;;4.45;2.13;;;3.90;99.90;;;;;;4992650;28;20026;-73
2022/09/22 03:53:45;;;;;;;4.45;2.70;;;3.80;99.90;;;;;;4993528;28;20031;-73
2022/09/22 03:56:14;;;;;;;4.20;2.70;;;3.90;99.90;;;;;;4976164;28;20057;-73
2022/09/22 03:58:41;;;;;;;3.05;2.28;;;3.90;99.90;;;;;;4994031;28;20038;-73
2022/09/22 04:01:10;;;;;;;9.70;3.47;;;3.80;99.90;;;;;;4992862;28;20041;-73
2022/09/22 04:03:36;;;;;;;8.63;2.75;;;3.70;99.90;;;;;;4993646;28;20045;-73
2022/09/22 04:06:04;;;;;;;6.47;2.33;;;3.70;99.90;;;;;;4994119;28;20042;-73
2022/09/22 04:08:31;;;;;;;5.28;3.92;;;3.60;99.90;;;;;;4992340;28;20050;-73
2022/09/22 04:10:58;;;;;;;5.32;3.03;;;3.60;99.90;;;;;;4992993;28;20042;-74
2022/09/22 04:13:25;;;;;;;5.35;2.95;;;3.60;99.90;;;;;;4975345;28;20042;-74
2022/09/22 04:15:51;;;;;;;6.28;3.70;;;3.60;99.90;;;;;;4994119;28;20053;-73
2022/09/22 04:18:17;;;;;;;7.75;3.88;;;3.60;99.90;;;;;;4992791;28;20034;-74
2022/09/22 04:20:44;;;;;;;4.72;3.17;;;3.60;99.90;;;;;;4985264;28;20045;-74
2022/09/22 04:23:14;;;;;;;8.20;2.80;;;3.60;99.90;;;;;;4985043;28;20483;-74
2022/09/22 04:25:40;;;;;;;7.05;3.95;;;3.60;99.90;;;;;;4993138;28;20034;-74
2022/09/22 04:28:07;;;;;;;5.60;3.05;;;3.60;99.90;;;;;;4993072;28;20051;-73
2022/09/22 04:30:34;;;;;;;5.35;2.80;;;3.60;99.90;;;;;;4991607;28;20678;-75
2022/09/22 04:33:00;;;;;;;4.72;3.03;;;3.60;99.90;;;;;;4993596;28;20034;-74
2022/09/22 04:35:28;;;;;;;6.82;3.13;;;3.70;99.90;;;;;;4992709;28;20094;-74
2022/09/22 04:37:55;;;;;;;5.50;2.88;;;3.60;99.90;;;;;;4993282;28;20049;-74
2022/09/22 04:40:23;;;;;;;8.93;2.67;;;3.50;99.90;;;;;;4991461;28;20049;-74
2022/09/22 04:42:49;;;;;;;3.90;2.50;;;3.30;99.90;;;;;;4992642;28;20030;-74
2022/09/22 04:45:16;;;;;;;4.30;2.50;;;3.30;99.90;;;;;;4992710;28;20041;-73
2022/09/22 04:47:47;;;;;;;6.15;2.97;;;3.30;99.90;;;;;;4993116;28;20038;-74
2022/09/22 04:50:13;;;;;;;5.60;3.00;;;3.30;99.90;;;;;;4993262;28;20041;-74
2022/09/22 04:52:44;;;;;;;5.07;2.83;;;3.30;99.90;;;;;;4974747;28;20376;-74
2022/09/22 04:55:10;;;;;;;7.60;3.50;;;3.30;99.90;;;;;;4993259;28;20383;-75
2022/09/22 04:57:37;;;;;;;5.45;2.65;;;3.40;99.90;;;;;;4968066;28;20045;-74
2022/09/22 05:00:04;;;;;;;5.13;3.17;;;3.40;99.90;;;;;;4992881;28;20049;-73
2022/09/22 05:02:30;;;;;;;6.78;3.10;;;3.40;99.90;;;;;;4990489;28;20057;-74
2022/09/22 05:04:56;;;;;;;5.88;3.17;;;3.40;99.90;;;;;;4992917;28;20384;-74
2022/09/22 05:07:22;;;;;;;7.70;2.72;;;3.30;99.90;;;;;;4989645;28;20038;-73
2022/09/22 05:09:48;;;;;;;5.85;3.13;;;3.40;99.90;;;;;;4992570;28;20046;-73
2022/09/22 05:12:14;;;;;;;6.93;3.22;;;3.40;99.90;;;;;;4988341;28;20460;-73
2022/09/22 05:14:41;;;;;;;5.18;2.53;;;3.50;99.90;;;;;;4991202;28;20054;-74
2022/09/22 05:17:07;;;;;;;5.40;3.42;;;3.50;99.90;;;;;;4991989;28;20035;-73
2022/09/22 05:19:33;;;;;;;6.80;2.58;;;3.50;99.90;;;;;;4992154;28;20037;-73
2022/09/22 05:21:59;;;;;;;7.28;3.42;;;3.40;99.90;;;;;;4991524;28;20034;-73
2022/09/22 05:24:26;;;;;;;6.55;3.22;;;3.40;99.90;;;;;;4992001;28;20030;-72
2022/09/22 05:26:52;;;;;;;5.78;2.63;;;3.40;99.90;;;;;;4992067;28;20042;-73
2022/09/22 05:29:19;;;;;;;6.35;3.00;;;3.40;99.90;;;;;;4992262;28;20041;-73
2022/09/22 05:31:45;;;;;;;6.30;2.83;;;3.40;99.90;;;;;;4984951;28;20034;-74
2022/09/22 05:34:11;;;;;;;5.63;2.55;;;3.40;99.90;;;;;;4992472;28;20042;-73
2022/09/22 05:36:37;;;;;;;4.47;2.30;;;3.50;99.90;;;;;;4991630;28;20034;-73
2022/09/22 05:39:04;;;;;;;6.38;2.60;;;3.60;99.90;;;;;;4975067;28;20049;-73
2022/09/22 05:41:30;;;;;;;5.32;2.97;;;3.60;99.90;;;;;;4990758;28;20030;-73
2022/09/22 05:43:56;;;;;;;4.82;2.75;;;3.70;99.90;;;;;;4992462;28;20038;-73
2022/09/22 05:46:22;;;;;;;5.13;2.92;;;3.70;99.90;;;;;;4991707;28;20041;-73
2022/09/22 05:48:48;;;;;;;8.60;3.22;;;3.60;99.90;;;;;;4992588;28;20043;-73
2022/09/22 05:51:14;;;;;;;6.05;3.03;;;3.50;99.90;;;;;;4991540;28;20034;-73
2022/09/22 05:53:40;;;;;;;4.30;2.88;;;3.50;99.90;;;;;;4992460;28;20383;-73
2022/09/22 05:56:06;;;;;;;7.00;2.92;;;3.60;99.90;;;;;;4992354;28;20046;-73
2022/09/22 05:58:33;;;;;;;6.97;3.13;;;3.70;99.90;;;;;;4992156;28;20456;-73
2022/09/22 06:00:59;;;;;;;5.43;3.78;;;4.30;99.90;;;;;;4991263;28;20037;-74
2022/09/22 06:03:25;;;;;;;4.93;3.15;;;5.00;99.90;;;;;;4991809;28;20065;-73
2022/09/22 06:05:51;;;;;;;5.00;2.97;;;5.40;99.90;;;;;;4992540;28;20043;-73
2022/09/22 06:08:17;;;;;;;6.50;2.85;;;5.40;99.90;;;;;;4991668;28;20042;-74
2022/09/22 06:10:44;;;;;;;6.35;3.30;;;5.40;99.90;;;;;;4973156;28;20050;-73
2022/09/22 06:13:10;;;;;;;5.90;2.80;;;5.30;99.90;;;;;;4992484;28;20033;-73
2022/09/22 06:15:38;;;;;;;5.13;2.58;;;5.20;99.90;;;;;;4995380;28;20301;-73
2022/09/22 06:18:06;;;;;;;4.97;2.42;;;5.10;99.90;;;;;;4996011;28;20034;-74
2022/09/22 06:20:34;;;;;;;4.03;2.35;;;5.10;99.90;;;;;;4994800;28;20038;-73
2022/09/22 06:23:00;;;;;;;6.97;2.35;;;5.10;99.90;;;;;;4996163;28;20042;-74
2022/09/22 06:25:29;;;;;;;4.63;2.65;;;5.20;99.90;;;;;;4995553;28;20037;-73
2022/09/22 06:28:01;;;;;;;8.73;3.25;;;5.30;99.90;;;;;;4988930;28;20042;-74
2022/09/22 06:30:27;;;;;;;3.97;2.55;;;5.60;99.90;;;;;;4988817;28;20470;-73
2022/09/22 06:32:55;;;;;;;4.88;2.72;;;6.20;99.90;;;;;;4988897;28;20054;-72
2022/09/22 06:35:21;;;;;;;4.60;2.55;;;6.60;99.90;;;;;;4995523;28;20122;-72
2022/09/22 06:37:55;;;;;;;4.45;2.70;;;6.90;99.90;;;;;;4995798;28;20034;-72
2022/09/22 06:40:23;;;;;;;5.78;3.45;;;8.00;99.90;;;;;;4995483;28;20039;-73
2022/09/22 06:42:54;;;;;;;3.60;2.25;;;8.80;99.90;;;;;;4994744;28;20041;-73
2022/09/22 06:45:20;;;;;;;5.05;2.67;;;9.60;99.90;;;;;;4995770;28;20034;-73
2022/09/22 06:47:46;;;;;;;6.05;2.90;;;10.30;99.90;;;;;;4995470;28;20046;-73
2022/09/22 06:50:13;;;;;;;4.28;3.05;;;10.60;99.90;;;;;;4995755;28;20034;-73
2022/09/22 06:52:39;;;;;;;3.50;2.65;;;10.50;99.90;;;;;;4993926;28;20042;-73
2022/09/22 06:55:06;;;;;;;6.57;3.13;;;10.50;99.90;;;;;;4977966;28;20030;-74
2022/09/22 06:57:32;;;;;;;4.32;3.13;;;10.60;99.90;;;;;;4977029;28;20042;-73
2022/09/22 06:59:59;;;;;;;3.70;2.20;;;10.20;99.90;;;;;;4995547;28;20027;-74
2022/09/22 07:02:27;;;;;;;4.82;2.92;;;9.60;99.90;;;;;;4993296;28;20058;-73
2022/09/22 07:04:57;;;;;;;4.45;2.60;;;9.40;99.90;;;;;;4995514;28;20467;-74
2022/09/22 07:07:27;;;;;;;5.85;2.05;;;9.20;99.90;;;;;;4995323;28;20061;-74
2022/09/22 07:09:53;;;;;;;5.93;2.33;;;9.30;99.90;;;;;;4995519;28;20468;-74
2022/09/22 07:12:21;;;;;;;3.97;2.45;;;10.10;99.90;;;;;;4994204;28;20330;-75
2022/09/22 07:14:48;;;;;;;6.90;2.50;;;10.40;99.90;;;;;;4995491;28;20038;-74
2022/09/22 07:17:17;;;;;;;5.00;1.92;;;10.90;99.90;;;;;;4995496;28;20034;-74
2022/09/22 07:19:45;;;;;;;3.90;2.30;;;10.90;99.90;;;;;;4994405;28;20395;-74
2022/09/22 07:22:15;;;;;;;4.43;2.25;;;10.80;99.90;;;;;;4993949;28;20383;-73
2022/09/22 07:24:41;;;;;;;3.10;1.90;;;11.10;99.90;;;;;;4994227;28;20046;-74
2022/09/22 07:27:09;;;;;;;4.50;2.00;;;11.50;99.90;;;;;;4994198;28;20065;-74
2022/09/22 07:29:39;;;;;;;3.63;2.20;;;11.40;99.90;;;;;;4994475;28;20046;-74
2022/09/22 07:32:05;;;;;;;4.03;2.30;;;10.80;99.90;;;;;;4993680;28;20352;-74
2022/09/22 07:34:31;;;;;;;3.33;1.90;;;10.70;99.90;;;;;;4994126;28;20030;-74
2022/09/22 07:37:01;;;;;;;5.18;2.90;;;10.50;99.90;;;;;;4994754;28;20395;-74
2022/09/22 07:39:27;;;;;;;6.60;2.53;;;10.90;99.90;;;;;;4994448;28;20049;-74
2022/09/22 07:41:54;;;;;;;4.20;2.67;;;11.20;99.90;;;;;;4993367;28;20074;-74
2022/09/22 07:47:04;;;;;;;4.30;2.50;;;10.90;99.90;;;;;;4995848;28;20049;-74
2022/09/22 07:49:31;;;;;;;3.15;1.90;;;11.30;99.90;;;;;;4994261;28;20066;-74
2022/09/22 07:51:57;;;;;;;3.30;1.88;;;11.60;99.90;;;;;;4987442;28;20038;-74
2022/09/22 07:54:25;;;;;;;5.88;2.25;;;11.60;99.90;;;;;;4994204;28;20038;-74
2022/09/22 07:56:54;;;;;;;2.95;1.75;;;11.90;99.90;;;;;;4976689;28;20043;-74
2022/09/22 07:59:21;;;;;;;2.50;2.00;;;11.80;99.90;;;;;;4994592;28;20031;-74
2022/09/22 08:01:49;;;;;;;5.63;1.55;;;12.20;99.90;;;;;;4991785;28;20054;-74
2022/09/22 08:04:21;;;;;;;3.67;1.77;;;12.10;99.90;;;;;;4996277;28;20041;-74
2022/09/22 08:06:54;;;;;;;3.13;1.90;;;12.50;99.90;;;;;;4994051;28;20497;-74
2022/09/22 08:09:21;;;;;;;4.07;1.90;;;13.10;99.90;;;;;;4993949;28;20399;-74
2022/09/22 08:11:47;;;;;;;2.92;1.75;;;13.60;99.90;;;;;;4992304;28;20042;-74
2022/09/22 08:14:16;;;;;;;3.10;1.30;;;13.20;99.90;;;;;;4994209;28;20030;-74
2022/09/22 08:16:43;;;;;;;2.25;1.70;;;12.90;99.90;;;;;;4993337;28;20030;-74
2022/09/22 08:19:13;;;;;;;2.90;1.85;;;13.10;99.90;;;;;;4994158;28;20456;-74
2022/09/22 08:21:44;;;;;;;3.63;1.73;;;13.60;99.90;;;;;;4992312;28;20057;-74
2022/09/22 08:24:12;;;;;;;2.63;1.15;;;14.20;99.90;;;;;;4993976;28;20387;-74
2022/09/22 08:26:40;;;;;;;2.95;1.48;;;14.10;99.90;;;;;;4993168;28;20043;-75
2022/09/22 08:29:07;;;;;;;2.53;1.17;;;14.20;99.90;;;;;;4993997;28;20053;-74
2022/09/22 08:31:34;;;;;;;3.35;1.50;;;14.10;99.90;;;;;;4991781;28;20038;-75
2022/09/22 08:34:00;;;;;;;4.15;1.98;;;14.40;99.90;;;;;;4993776;28;20448;-74
2022/09/22 08:36:27;;;;;;;3.35;1.10;;;14.60;98.70;;;;;;4993303;28;20039;-74
2022/09/22 08:38:54;;;;;;;2.55;1.38;;;14.20;97.60;;;;;;4975390;28;20047;-74
2022/09/22 08:41:26;;;;;;;5.95;3.10;;;14.70;96.00;;;;;;4992411;28;20515;-75
2022/09/22 08:44:11;;;;;;;10.40;2.50;;;15.20;94.60;;;;;;4993784;28;20490;-74
2022/09/22 08:46:40;;;;;;;1.88;1.10;;;15.60;93.90;;;;;;4975088;28;20045;-74
2022/09/22 08:52:24;;;;;;;3.22;1.73;;;15.50;93.90;;;;;;4992436;28;20038;-74
2022/09/22 08:54:50;;;;;;;2.67;1.27;;;16.00;92.40;;;;;;4987305;28;20026;-74
2022/09/22 08:57:25;;;;;;;2.83;1.30;;;15.40;93.00;;;;;;4993334;28;20049;-74
2022/09/22 09:00:16;;;;;;;3.15;1.27;;;15.50;93.50;;;;;;4987926;28;20041;-74
2022/09/22 09:02:58;;;;;;;2.75;1.10;;;15.70;92.90;;;;;;4973202;28;20050;-74
2022/09/22 09:05:54;;;;;;;3.90;1.15;;;15.70;92.30;;;;;;4993351;28;20468;-74
2022/09/22 09:08:47;;;;;;;3.08;1.05;;;16.00;91.20;;;;;;4990133;28;20141;-74
2022/09/22 09:11:32;;;;;;;1.52;1.13;;;16.00;90.80;;;;;;4991605;28;20034;-75
2022/09/22 09:14:05;;;;;;;3.25;1.20;;;16.10;89.90;;;;;;4975596;28;20050;-75
2022/09/22 09:16:50;;;;;;;1.95;0.90;;;15.30;90.00;;;;;;4992771;28;20478;-75
2022/09/22 09:19:49;;;;;;;1.65;0.90;;;15.90;88.80;;;;;;4993306;28;20440;-74
2022/09/22 09:22:24;;;;;;;1.42;1.00;;;16.80;83.20;;;;;;4986835;28;20041;-75
2022/09/22 09:25:14;;;;;;;1.52;0.90;;;16.70;81.90;;;;;;4992083;28;20041;-75
2022/09/22 09:27:43;;;;;;;2.35;0.95;;;17.10;81.70;;;;;;4974386;28;20057;-75
2022/09/22 09:30:18;;;;;;;4.40;0.80;;;17.00;80.30;;;;;;4992637;28;20034;-75
2022/09/22 09:32:58;;;;;;;3.65;1.13;;;16.50;82.60;;;;;;4973627;28;20034;-75
2022/09/22 09:35:43;;;;;;;1.97;1.07;;;17.40;81.30;;;;;;4975715;28;20049;-74
2022/09/22 09:38:16;;;;;;;1.73;0.90;;;18.30;77.30;;;;;;4992709;28;20050;-74
2022/09/22 09:40:47;;;;;;;3.17;1.00;;;18.20;76.90;;;;;;4992058;28;20030;-73
2022/09/22 09:43:14;;;;;;;1.98;0.90;;;18.00;77.40;;;;;;4991232;28;20030;-73
2022/09/22 09:46:10;;;;;;;3.20;1.15;;;17.70;77.00;;;;;;4992066;28;20037;-73
2022/09/22 09:49:01;;;;;;;2.47;1.17;;;17.30;76.30;;;;;;4996736;28;20038;-74
2022/09/22 09:51:28;;;;;;;2.17;1.13;;;16.30;80.90;;;;;;4997939;28;20042;-75
2022/09/22 09:53:56;;;;;;;5.15;2.13;;;16.20;82.30;;;;;;5000105;28;20038;-74
2022/09/22 09:56:24;;;;;;;3.33;1.30;;;16.40;82.30;;;;;;4999329;28;20038;-75
2022/09/22 10:01:43;;;;;;;2.05;1.17;;;16.10;82.80;;;;;;4997478;28;20053;-75
2022/09/22 10:04:32;;;;;;;1.77;0.98;;;16.20;82.20;;;;;;4993401;28;20388;-75
2022/09/22 10:07:17;;;;;;;2.30;1.00;;;16.50;82.20;;;;;;4995779;28;20042;-74
2022/09/22 10:09:46;;;;;;;2.05;0.77;;;16.90;80.10;;;;;;4998448;28;20137;-74
2022/09/22 10:12:28;;;;;;;2.13;0.80;;;17.10;77.00;;;;;;4980252;28;20038;-73
2022/09/22 10:14:57;;;;;;;1.90;0.93;;;17.20;76.20;;;;;;4986495;28;20034;-74
2022/09/22 10:17:27;;;;;;;1.92;0.80;;;17.30;75.10;;;;;;4998940;28;20037;-74
2022/09/22 10:20:14;;;;;;;;;;;17.30;71.50;;;;;;4999655;28;20030;-73
2022/09/22 10:22:41;;;;;;;2.90;0.70;;;17.00;74.00;;;;;;4980771;28;19910;-74
2022/09/22 10:25:18;;;;;;;5.60;0.85;;;16.80;74.20;;;;;;4985535;28;20050;-74
2022/09/22 10:28:17;;;;;;;1.98;0.93;;;16.80;75.00;;;;;;4985033;28;20042;-74
2022/09/22 10:30:57;;;;;;;3.05;1.00;;;17.10;71.60;;;;;;5003412;28;20041;-74
2022/09/22 10:33:23;;;;;;;4.25;1.35;;;17.10;68.60;;;;;;5000310;28;20045;-74
2022/09/22 10:36:09;;;;;;;4.03;0.80;;;16.80;69.10;;;;;;4997958;28;20031;-74
2022/09/22 10:38:38;;;;;;;1.20;0.85;;;16.70;70.20;;;;;;4980623;28;20049;-75
2022/09/22 10:41:11;;;;;;;1.98;0.80;;;16.90;68.20;;;;;;4979790;28;20018;-75
2022/09/22 10:43:55;;;;;;;3.17;0.88;;;17.00;69.00;;;;;;4998900;28;20034;-74
2022/09/22 10:46:31;;;;;;;1.40;0.70;;;17.00;69.50;;;;;;4999034;28;20030;-75
2022/09/22 10:49:15;;;;;;;3.10;0.98;;;17.00;68.50;;;;;;4998455;28;20395;-74
2022/09/22 10:52:10;;;;;;;2.05;0.80;;;16.80;70.40;;;;;;4996674;28;20459;-75
2022/09/22 10:55:13;;;;;;;2.67;0.80;;;17.00;70.70;;;;;;4998238;28;20030;-75
2022/09/22 10:57:58;;;;;;;0.73;0.40;;;17.40;68.10;;;;;;4998283;28;20463;-74
2022/09/22 11:00:26;;;;;;;2.17;0.50;;;17.80;67.00;;;;;;4978474;28;20049;-75
2022/09/22 11:03:22;;;;;;;3.53;0.88;;;17.70;66.00;;;;;;4993636;28;20597;-75
2022/09/22 11:14:41;;;;;;;1.10;0.50;;;17.50;62.10;;;;;;4995377;28;20383;-74
2022/09/22 11:17:24;;;;;;;1.63;0.30;;;17.50;63.10;;;;;;4977379;28;20050;-74
2022/09/22 11:19:51;;;;;;;1.10;0.50;;;17.90;62.70;;;;;;4994965;28;20031;-74
2022/09/22 11:22:32;;;;;;;2.28;0.70;;;17.60;62.10;;;;;;4993861;28;20042;-74
2022/09/22 11:25:16;;;;;;;;;;;17.60;63.20;;;;;;4995315;28;20053;-74
2022/09/22 11:27:51;;;;;;;3.92;0.75;;;17.60;61.90;;;;;;4994502;28;19917;-75
2022/09/22 11:30:21;;;;;;;2.45;0.70;;;17.70;63.20;;;;;;4994902;28;20038;-75
2022/09/22 11:33:15;;;;;;;1.90;0.65;;;17.80;60.90;;;;;;4993206;28;20494;-74
2022/09/22 11:36:19;;;;;;;2.15;0.82;;;18.00;60.30;;;;;;4994556;28;20030;-75
2022/09/22 11:39:06;;;;;;;1.58;0.50;;;18.30;62.50;;;;;;4994266;28;20042;-75
2022/09/22 11:41:53;;;;;;;2.05;0.80;;;18.50;60.60;;;;;;4993559;28;20031;-74
2022/09/22 11:44:30;;;;;;;2.22;0.70;;;18.60;59.90;;;;;;4994655;28;20030;-75
2022/09/22 11:46:57;;;;;;;1.30;0.60;;;18.40;57.70;;;;;;4994131;28;20030;-75
2022/09/22 11:49:35;;;;;;;0.75;0.40;;;18.40;58.80;;;;;;4998141;28;20038;-74
2022/09/22 11:52:42;;;;;;;2.22;0.50;;;18.60;56.90;;;;;;4995216;28;20034;-74
2022/09/22 11:55:31;;;;;;;1.67;0.73;;;18.60;57.90;;;;;;4993721;28;20046;-74
2022/09/22 11:58:00;;;;;;;2.42;0.45;;;18.40;57.20;;;;;;4994036;28;20038;-75
2022/09/22 12:00:34;;;;;;;0.60;0.50;;;18.40;58.00;;;;;;4993523;28;20062;-75
2022/09/22 12:03:12;;;;;;;1.65;0.70;;;18.50;57.00;;;;;;4992830;28;20058;-74
2022/09/22 12:05:46;;;;;;;2.85;0.70;;;18.60;58.10;;;;;;4994154;28;20042;-76
2022/09/22 12:08:15;;;;;;;1.33;0.52;;;18.90;58.30;;;;;;4976919;28;20372;-74
2022/09/22 12:10:43;;;;;;;2.17;0.60;;;19.20;56.40;;;;;;4993435;28;20467;-76
2022/09/22 12:13:31;;;;;;;2.83;0.60;;;19.10;55.10;;;;;;4992552;28;20033;-74
2022/09/22 12:16:19;;;;;;;1.15;0.50;;;19.30;56.50;;;;;;4993338;28;20038;-75
2022/09/22 12:19:15;;;;;;;0.85;0.45;;;19.50;56.20;;;;;;4993277;28;20061;-76
2022/09/22 12:22:06;;;;;;;1.25;0.52;;;20.00;54.70;;;;;;4991675;28;20030;-76
2022/09/22 12:24:33;;;;;;;;;;;20.00;52.40;;;;;;4994296;28;20034;-76
2022/09/22 12:27:10;;;;;;;2.35;0.55;;;20.10;53.00;;;;;;4992945;28;19909;-76
2022/09/22 12:29:37;;;;;;;1.83;0.68;;;20.20;50.90;;;;;;4993608;28;20039;-76
2022/09/22 12:32:04;;;;;;;2.45;0.60;;;19.80;50.80;;;;;;4992513;28;20037;-76
2022/09/22 12:34:38;;;;;;;2.17;0.30;;;19.70;50.80;;;;;;4993614;28;20034;-76
2022/09/22 12:37:37;;;;;;;1.25;0.40;;;19.70;52.60;;;;;;4993835;28;20041;-75
2022/09/22 12:40:29;;;;;;;1.48;0.50;;;19.50;50.40;;;;;;4978570;28;20042;-76
2022/09/22 12:42:58;;;;;;;2.15;0.70;;;19.40;52.60;;;;;;4991559;28;20034;-76
2022/09/22 12:45:24;;;;;;;1.17;0.50;;;19.90;52.10;;;;;;4993514;28;20034;-76
2022/09/22 12:47:54;;;;;;;0.63;0.40;;;20.10;49.90;;;;;;4975179;28;20046;-76
2022/09/22 12:50:23;;;;;;;2.55;0.60;;;19.60;51.10;;;;;;4993226;28;20035;-75
2022/09/22 12:52:49;;;;;;;0.77;0.40;;;19.80;52.20;;;;;;4991444;28;20034;-76
2022/09/22 12:55:27;;;;;;;2.13;0.70;;;20.20;51.20;;;;;;4993321;28;20037;-76
2022/09/22 12:57:59;;;;;;;2.45;0.50;;;20.30;51.10;;;;;;4992632;28;20116;-76
2022/09/22 13:00:36;;;;;;;1.65;0.70;;;20.20;48.60;;;;;;4992807;28;20037;-77
2022/09/22 13:03:31;;;;;;;1.95;0.50;;;19.80;51.50;;;;;;4991734;28;20051;-76
2022/09/22 13:06:25;;;;;;;1.13;0.45;;;19.90;50.30;;;;;;4992225;28;20132;-76
2022/09/22 13:08:51;;;;;;;2.55;0.60;;;20.10;51.30;;;;;;4955679;28;20525;-75
2022/09/22 13:11:17;;;;;;;1.33;0.40;;;20.20;49.00;;;;;;4991325;28;20081;-74
2022/09/22 13:13:45;;;;;;;1.23;0.45;;;20.10;48.10;;;;;;4992175;28;20484;-74
2022/09/22 13:16:14;;;;;;;1.13;0.70;;;19.90;49.00;;;;;;4992725;28;20041;-75
2022/09/22 13:18:55;;;;;;;0.60;0.30;;;20.00;48.60;;;;;;4974811;28;20057;-75
2022/09/22 13:21:32;;;;;;;2.38;0.63;;;20.00;47.00;;;;;;4991173;28;20078;-74
2022/09/22 13:24:00;;;;;;;1.08;0.30;;;19.60;47.20;;;;;;4987978;28;20035;-75
2022/09/22 13:26:36;;;;;;;1.02;0.45;;;19.70;47.70;;;;;;4984416;28;20026;-75
2022/09/22 13:29:03;;;;;;;1.30;0.30;;;19.80;48.80;;;;;;4970262;28;20037;-75
2022/09/22 13:31:43;;;;;;;1.75;0.60;;;19.60;49.70;;;;;;4983127;28;20045;-75
2022/09/22 13:34:19;;;;;;;2.53;0.60;;;19.50;50.00;;;;;;4992532;28;20045;-76
2022/09/22 13:36:47;;;;;;;4.00;0.70;;;19.40;50.30;;;;;;4971379;28;20282;-76
2022/09/22 13:39:19;;;;;;;0.93;0.40;;;19.40;50.50;;;;;;4991996;28;20038;-75
2022/09/22 13:41:50;;;;;;;1.70;0.47;;;19.50;49.80;;;;;;4990217;28;20034;-75
2022/09/22 13:44:30;;;;;;;1.25;0.60;;;19.50;50.00;;;;;;4992175;28;20034;-75
2022/09/22 13:46:59;;;;;;;1.27;0.63;;;19.60;49.50;;;;;;4991607;28;20057;-75
2022/09/22 13:49:30;;;;;;;1.17;0.55;;;19.90;49.80;;;;;;4992034;28;20038;-74
2022/09/22 13:52:07;;;;;;;;;;;19.70;48.80;;;;;;4988130;28;20030;-75
2022/09/22 13:54:36;;;;;;;2.50;0.50;;;19.30;49.80;;;;;;4992666;28;20346;-75
2022/09/22 13:57:06;;;;;;;1.05;0.45;;;19.10;49.50;;;;;;4991717;28;20178;-75
2022/09/22 13:59:41;;;;;;;1.38;0.60;;;19.10;50.50;;;;;;4991978;28;20105;-75
2022/09/22 14:02:10;;;;;;;1.13;0.60;;;19.10;50.10;;;;;;4990957;28;20047;-75
2022/09/22 14:04:37;;;;;;;1.65;0.50;;;19.30;51.50;;;;;;4992272;28;20035;-75
2022/09/22 14:07:09;;;;;;;0.82;0.40;;;19.60;50.40;;;;;;4992367;28;20358;-75
2022/09/22 14:09:37;;;;;;;3.90;0.93;;;19.80;51.80;;;;;;4994262;28;20061;-75
2022/09/22 14:12:07;;;;;;;1.05;0.70;;;19.90;49.50;;;;;;4991984;28;20041;-75
2022/09/22 14:14:33;;;;;;;0.93;0.50;;;19.60;49.90;;;;;;4994091;28;20035;-74
2022/09/22 14:17:07;;;;;;;1.55;0.60;;;19.30;50.10;;;;;;4972976;28;20300;-75